Time,TemperatureF,DewpointF,PressureIn,WindDirection,WindDirectionDegrees,WindSpeedMPH,WindSpeedGustMPH,Humidity,HourlyPrecipIn,Conditions,Clouds,dailyrainin,SolarRadiationWatts/m^2,SoftwareType,DateUTC
2013-09-04 00:01:00,58.2,56.0,29.97,North,360,0.0,4.0,92,0.00,,,0.01,0,weatherlink.com 1.10,2013-09-04 07:01:00,
2013-09-04 00:16:00,57.2,55.0,29.97,North,360,0.0,1.0,91,0.00,,,0.00,0,weatherlink.com 1.10,2013-09-04 07:16:00,
2013-09-04 00:31:00,56.1,54.0,29.97,North,360,0.0,2.0,92,0.00,,,0.00,0,weatherlink.com 1.10,2013-09-04 07:31:00,
2013-09-04 00:46:00,59.2,56.0,29.97,NNE,26,2.0,6.0,90,0.00,,,0.00,0,weatherlink.com 1.10,2013-09-04 07:46:00,
2013-09-04 01:01:00,60.0,57.0,29.97,NNW,327,3.0,4.0,88,0.00,,,0.00,0,weatherlink.com 1.10,2013-09-04 08:01:00,
2013-09-04 01:16:00,58.9,55.0,29.97,West,259,1.0,4.0,86,0.00,,,0.00,0,weatherlink.com 1.10,2013-09-04 08:16:00,
2013-09-04 01:31:00,57.1,54.0,29.97,West,259,0.0,2.0,89,0.00,,,0.00,0,weatherlink.com 1.10,2013-09-04 08:31:00,
2013-09-04 01:46:00,56.2,54.0,29.97,NNE,18,0.0,4.0,91,0.00,,,0.00,0,weatherlink.com 1.10,2013-09-04 08:46:00,
2013-09-04 02:01:00,56.0,54.0,29.97,NNE,18,0.0,2.0,92,0.00,,,0.00,0,weatherlink.com 1.10,2013-09-04 09:01:00,
2013-09-04 02:16:00,56.8,55.0,29.98,NNE,18,0.0,1.0,92,0.00,,,0.00,0,weatherlink.com 1.10,2013-09-04 09:16:00,
2013-09-04 02:31:00,57.5,56.0,29.97,North,5,3.0,3.0,93,0.00,,,0.00,0,weatherlink.com 1.10,2013-09-04 09:31:00,
2013-09-04 02:46:00,58.7,56.0,29.97,NNE,15,4.0,5.0,91,0.00,,,0.00,0,weatherlink.com 1.10,2013-09-04 09:46:00,
2013-09-04 03:01:00,58.8,56.0,29.97,North,11,0.0,4.0,90,0.00,,,0.00,0,weatherlink.com 1.10,2013-09-04 10:01:00,
2013-09-04 03:16:00,58.5,56.0,29.97,North,11,0.0,0.0,90,0.00,,,0.00,0,weatherlink.com 1.10,2013-09-04 10:16:00,
2013-09-04 03:31:00,58.2,55.0,29.98,North,11,1.0,3.0,89,0.00,,,0.00,0,weatherlink.com 1.10,2013-09-04 10:31:00,
2013-09-04 03:46:00,56.6,54.0,29.98,NNE,29,2.0,4.0,91,0.00,,,0.00,0,weatherlink.com 1.10,2013-09-04 10:46:00,
2013-09-04 04:01:00,57.0,55.0,29.97,North,10,2.0,4.0,94,0.00,,,0.00,0,weatherlink.com 1.10,2013-09-04 11:01:00,
2013-09-04 04:16:00,57.4,55.0,29.98,NNE,24,0.0,5.0,92,0.00,,,0.00,0,weatherlink.com 1.10,2013-09-04 11:16:00,
2013-09-04 04:31:00,56.4,54.0,29.98,NNE,24,0.0,2.0,92,0.00,,,0.00,0,weatherlink.com 1.10,2013-09-04 11:31:00,
2013-09-04 04:46:00,55.3,54.0,29.98,NNE,24,2.0,4.0,94,0.00,,,0.00,0,weatherlink.com 1.10,2013-09-04 11:46:00,
2013-09-04 05:01:00,57.0,56.0,29.98,NNE,28,2.0,5.0,95,0.00,,,0.00,0,weatherlink.com 1.10,2013-09-04 12:01:00,
2013-09-04 05:16:00,58.3,56.0,29.98,NNW,328,0.0,5.0,93,0.00,,,0.00,0,weatherlink.com 1.10,2013-09-04 12:16:00,
2013-09-04 05:31:00,58.0,55.0,29.99,WSW,243,4.0,4.0,90,0.00,,,0.00,0,weatherlink.com 1.10,2013-09-04 12:31:00,
2013-09-04 05:46:00,55.5,54.0,29.98,NE,38,4.0,4.0,93,0.00,,,0.00,0,weatherlink.com 1.10,2013-09-04 12:46:00,
2013-09-04 06:01:00,55.7,54.0,29.99,NE,34,5.0,5.0,94,0.00,,,0.00,0,weatherlink.com 1.10,2013-09-04 13:01:00,
2013-09-04 06:16:00,56.3,55.0,29.99,NE,36,0.0,4.0,94,0.00,,,0.00,0,weatherlink.com 1.10,2013-09-04 13:16:00,
2013-09-04 06:31:00,57.1,56.0,30.00,NNE,27,0.0,4.0,96,0.00,,,0.00,0,weatherlink.com 1.10,2013-09-04 13:31:00,
2013-09-04 06:46:00,57.8,56.0,30.00,NW,319,2.0,3.0,93,0.00,,,0.00,5,weatherlink.com 1.10,2013-09-04 13:46:00,
2013-09-04 07:01:00,56.4,55.0,30.01,NE,42,5.0,6.0,93,0.00,,,0.00,12,weatherlink.com 1.10,2013-09-04 14:01:00,
2013-09-04 07:16:00,55.7,54.0,30.01,NE,39,2.0,6.0,94,0.00,,,0.00,18,weatherlink.com 1.10,2013-09-04 14:16:00,
2013-09-04 07:31:00,55.7,54.0,30.01,NE,38,3.0,5.0,95,0.00,,,0.00,23,weatherlink.com 1.10,2013-09-04 14:31:00,
2013-09-04 07:46:00,56.2,55.0,30.02,NE,50,0.0,3.0,95,0.00,,,0.00,26,weatherlink.com 1.10,2013-09-04 14:46:00,
2013-09-04 08:01:00,57.0,56.0,30.02,NE,48,2.0,5.0,95,0.00,,,0.00,113,weatherlink.com 1.10,2013-09-04 15:01:00,
2013-09-04 08:16:00,57.9,57.0,30.02,NE,46,2.0,4.0,95,0.00,,,0.00,241,weatherlink.com 1.10,2013-09-04 15:16:00,
2013-09-04 08:32:00,59.2,58.0,30.02,NE,45,0.0,3.0,95,0.00,,,0.00,290,weatherlink.com 1.10,2013-09-04 15:32:00,
2013-09-04 08:47:00,59.3,57.0,30.02,WSW,237,2.0,3.0,93,0.00,,,0.00,352,weatherlink.com 1.10,2013-09-04 15:47:00,
2013-09-04 09:02:00,59.8,58.0,30.02,WSW,238,0.0,2.0,93,0.00,,,0.00,411,weatherlink.com 1.10,2013-09-04 16:02:00,
2013-09-04 09:17:00,61.2,59.0,30.02,WSW,238,1.0,2.0,92,0.00,,,0.00,461,weatherlink.com 1.10,2013-09-04 16:17:00,
2013-09-04 09:32:00,61.4,59.0,30.03,WNW,299,0.0,4.0,90,0.00,,,0.00,506,weatherlink.com 1.10,2013-09-04 16:32:00,
2013-09-04 09:47:00,62.2,59.0,30.03,SSW,198,2.0,6.0,89,0.00,,,0.00,550,weatherlink.com 1.10,2013-09-04 16:47:00,
2013-09-04 10:02:00,62.2,59.0,30.03,West,275,7.0,7.0,89,0.00,,,0.00,592,weatherlink.com 1.10,2013-09-04 17:02:00,
2013-09-04 10:17:00,61.9,59.0,30.03,WNW,296,5.0,8.0,89,0.00,,,0.00,631,weatherlink.com 1.10,2013-09-04 17:17:00,
2013-09-04 10:32:00,62.0,59.0,30.03,WSW,257,6.0,7.0,89,0.00,,,0.00,668,weatherlink.com 1.10,2013-09-04 17:32:00,
2013-09-04 10:47:00,62.7,59.0,30.04,WNW,294,3.0,10.0,86,0.00,,,0.00,705,weatherlink.com 1.10,2013-09-04 17:47:00,
2013-09-04 11:02:00,63.4,58.0,30.04,WSW,258,5.0,11.0,83,0.00,,,0.00,737,weatherlink.com 1.10,2013-09-04 18:02:00,
2013-09-04 11:17:00,64.2,59.0,30.03,WNW,298,6.0,12.0,83,0.00,,,0.00,765,weatherlink.com 1.10,2013-09-04 18:17:00,
2013-09-04 11:32:00,64.4,59.0,30.03,WSW,253,5.0,13.0,83,0.00,,,0.00,789,weatherlink.com 1.10,2013-09-04 18:32:00,
2013-09-04 11:47:00,64.3,59.0,30.03,NW,315,3.0,14.0,84,0.00,,,0.00,810,weatherlink.com 1.10,2013-09-04 18:47:00,
2013-09-04 12:02:00,63.9,59.0,30.03,West,278,5.0,14.0,84,0.00,,,0.00,828,weatherlink.com 1.10,2013-09-04 19:02:00,
2013-09-04 12:17:00,63.8,59.0,30.03,West,259,6.0,15.0,85,0.00,,,0.00,844,weatherlink.com 1.10,2013-09-04 19:17:00,
2013-09-04 12:33:00,64.1,59.0,30.02,WSW,251,6.0,18.0,84,0.00,,,0.00,853,weatherlink.com 1.10,2013-09-04 19:33:00,
2013-09-04 12:48:00,64.5,59.0,30.02,NW,316,2.0,13.0,83,0.00,,,0.00,858,weatherlink.com 1.10,2013-09-04 19:48:00,
2013-09-04 13:03:00,64.2,59.0,30.02,West,277,7.0,18.0,83,0.00,,,0.00,863,weatherlink.com 1.10,2013-09-04 20:03:00,
2013-09-04 13:18:00,64.3,59.0,30.02,WSW,238,11.0,14.0,84,0.00,,,0.00,861,weatherlink.com 1.10,2013-09-04 20:18:00,
2013-09-04 13:33:00,64.0,60.0,30.01,West,268,9.0,17.0,85,0.00,,,0.00,856,weatherlink.com 1.10,2013-09-04 20:33:00,
2013-09-04 13:48:00,64.4,60.0,30.01,WNW,294,17.0,18.0,84,0.00,,,0.00,847,weatherlink.com 1.10,2013-09-04 20:48:00,
2013-09-04 14:03:00,64.6,59.0,30.01,WNW,297,11.0,17.0,83,0.00,,,0.00,837,weatherlink.com 1.10,2013-09-04 21:03:00,
2013-09-04 14:18:00,64.5,60.0,30.00,WSW,258,6.0,17.0,84,0.00,,,0.00,821,weatherlink.com 1.10,2013-09-04 21:18:00,
2013-09-04 14:33:00,64.9,59.0,30.00,SW,234,8.0,20.0,82,0.00,,,0.00,803,weatherlink.com 1.10,2013-09-04 21:33:00,
2013-09-04 14:48:00,64.9,59.0,29.99,WNW,282,3.0,17.0,82,0.00,,,0.00,780,weatherlink.com 1.10,2013-09-04 21:48:00,
2013-09-04 15:03:00,65.5,60.0,29.99,WSW,250,9.0,20.0,81,0.00,,,0.00,756,weatherlink.com 1.10,2013-09-04 22:03:00,
2013-09-04 15:18:00,65.4,59.0,29.99,NW,315,10.0,16.0,80,0.00,,,0.00,728,weatherlink.com 1.10,2013-09-04 22:18:00,
2013-09-04 15:33:00,64.9,59.0,29.99,NW,306,8.0,18.0,81,0.00,,,0.00,694,weatherlink.com 1.10,2013-09-04 22:33:00,
2013-09-04 15:48:00,64.8,59.0,29.98,WNW,291,8.0,20.0,80,0.00,,,0.00,664,weatherlink.com 1.10,2013-09-04 22:48:00,
2013-09-04 16:03:00,64.4,59.0,29.97,WNW,288,12.0,19.0,82,0.00,,,0.00,631,weatherlink.com 1.10,2013-09-04 23:03:00,
2013-09-04 16:18:00,65.2,59.0,29.97,WNW,302,6.0,16.0,79,0.00,,,0.00,608,weatherlink.com 1.10,2013-09-04 23:18:00,
2013-09-04 16:33:00,66.1,59.0,29.97,WNW,284,9.0,18.0,78,0.00,,,0.00,469,weatherlink.com 1.10,2013-09-04 23:33:00,
2013-09-04 16:48:00,65.0,58.0,29.96,WSW,250,11.0,18.0,79,0.00,,,0.00,483,weatherlink.com 1.10,2013-09-04 23:48:00,
2013-09-04 17:03:00,63.4,58.0,29.96,West,261,13.0,16.0,83,0.00,,,0.00,234,weatherlink.com 1.10,2013-09-05 00:03:00,
2013-09-04 17:18:00,64.2,58.0,29.96,WSW,258,7.0,14.0,80,0.00,,,0.00,174,weatherlink.com 1.10,2013-09-05 00:18:00,
2013-09-04 17:33:00,63.9,58.0,29.96,West,278,4.0,15.0,82,0.00,,,0.00,193,weatherlink.com 1.10,2013-09-05 00:33:00,
2013-09-04 17:48:00,62.5,57.0,29.96,West,265,6.0,14.0,83,0.00,,,0.00,158,weatherlink.com 1.10,2013-09-05 00:48:00,
2013-09-04 18:03:00,63.3,58.0,29.95,WNW,300,7.0,16.0,82,0.00,,,0.00,230,weatherlink.com 1.10,2013-09-05 01:03:00,
2013-09-04 18:18:00,62.1,57.0,29.95,WNW,290,11.0,17.0,83,0.00,,,0.00,54,weatherlink.com 1.10,2013-09-05 01:18:00,
2013-09-04 18:33:00,63.0,58.0,29.95,WNW,291,3.0,12.0,83,0.00,,,0.00,32,weatherlink.com 1.10,2013-09-05 01:33:00,
2013-09-04 18:48:00,64.1,58.0,29.95,West,259,7.0,8.0,81,0.00,,,0.00,111,weatherlink.com 1.10,2013-09-05 01:48:00,
2013-09-04 19:03:00,64.4,58.0,29.95,WSW,258,7.0,10.0,79,0.00,,,0.00,65,weatherlink.com 1.10,2013-09-05 02:03:00,
2013-09-04 19:18:00,63.6,58.0,29.95,West,281,4.0,12.0,81,0.00,,,0.00,26,weatherlink.com 1.10,2013-09-05 02:18:00,
2013-09-04 19:33:00,63.3,57.0,29.95,WNW,289,1.0,6.0,81,0.00,,,0.00,14,weatherlink.com 1.10,2013-09-05 02:33:00,
2013-09-04 19:48:00,62.6,58.0,29.95,WNW,289,2.0,7.0,84,0.00,,,0.00,0,weatherlink.com 1.10,2013-09-05 02:48:00,
2013-09-04 20:03:00,62.4,58.0,29.96,WNW,296,0.0,5.0,85,0.00,,,0.00,0,weatherlink.com 1.10,2013-09-05 03:03:00,
2013-09-04 20:18:00,62.1,58.0,29.96,West,270,4.0,4.0,86,0.00,,,0.00,0,weatherlink.com 1.10,2013-09-05 03:18:00,
2013-09-04 20:33:00,62.0,58.0,29.97,WNW,292,1.0,4.0,87,0.00,,,0.00,0,weatherlink.com 1.10,2013-09-05 03:33:00,
2013-09-04 20:48:00,61.6,58.0,29.97,WNW,298,2.0,4.0,88,0.00,,,0.00,0,weatherlink.com 1.10,2013-09-05 03:48:00,
2013-09-04 21:03:00,62.0,58.0,29.97,NW,308,0.0,5.0,87,0.00,,,0.00,0,weatherlink.com 1.10,2013-09-05 04:03:00,
2013-09-04 21:18:00,60.6,57.0,29.97,NW,306,0.0,3.0,87,0.00,,,0.00,0,weatherlink.com 1.10,2013-09-05 04:18:00,
2013-09-04 21:33:00,59.6,56.0,29.97,NW,306,0.0,1.0,87,0.00,,,0.00,0,weatherlink.com 1.10,2013-09-05 04:33:00,
2013-09-04 21:48:00,59.9,56.0,29.97,WNW,291,3.0,4.0,87,0.00,,,0.00,0,weatherlink.com 1.10,2013-09-05 04:48:00,
2013-09-04 22:03:00,59.0,55.0,29.97,WNW,284,1.0,2.0,87,0.00,,,0.00,0,weatherlink.com 1.10,2013-09-05 05:03:00,
2013-09-04 22:18:00,59.1,56.0,29.97,WNW,285,1.0,3.0,88,0.00,,,0.00,0,weatherlink.com 1.10,2013-09-05 05:18:00,
2013-09-04 22:33:00,60.0,56.0,29.97,WNW,285,1.0,4.0,87,0.00,,,0.00,0,weatherlink.com 1.10,2013-09-05 05:33:00,
2013-09-04 22:48:00,61.2,56.0,29.97,NW,309,0.0,4.0,83,0.00,,,0.00,0,weatherlink.com 1.10,2013-09-05 05:48:00,
2013-09-04 23:03:00,59.8,55.0,29.98,NW,309,0.0,2.0,85,0.00,,,0.00,0,weatherlink.com 1.10,2013-09-05 06:03:00,
2013-09-04 23:18:00,59.0,55.0,29.97,NW,309,0.0,2.0,85,0.00,,,0.00,0,weatherlink.com 1.10,2013-09-05 06:18:00,
2013-09-04 23:33:00,58.5,55.0,29.97,NW,309,0.0,2.0,88,0.00,,,0.00,0,weatherlink.com 1.10,2013-09-05 06:33:00,
2013-09-04 23:48:00,59.3,56.0,29.97,NW,313,0.0,1.0,87,0.00,,,0.00,0,weatherlink.com 1.10,2013-09-05 06:48:00,